sensor_id;sensor_type;location;lat;lon;timestamp;P1;durP1;ratioP1;P2;durP2;ratioP2
7969;SDS011;4030;52.362;9.206;2022-12-18T00:01:17;8.40;;;6.50;;
7969;SDS011;4030;52.362;9.206;2022-12-18T00:03:47;9.90;;;6.67;;
7969;SDS011;4030;52.362;9.206;2022-12-18T00:06:13;10.37;;;6.67;;
7969;SDS011;4030;52.362;9.206;2022-12-18T00:08:40;8.83;;;6.27;;
7969;SDS011;4030;52.362;9.206;2022-12-18T00:11:07;7.90;;;6.30;;
7969;SDS011;4030;52.362;9.206;2022-12-18T00:13:37;9.17;;;6.40;;
7969;SDS011;4030;52.362;9.206;2022-12-18T00:16:03;8.50;;;6.57;;
7969;SDS011;4030;52.362;9.206;2022-12-18T00:18:32;11.00;;;7.03;;
7969;SDS011;4030;52.362;9.206;2022-12-18T00:20:59;8.00;;;6.37;;
7969;SDS011;4030;52.362;9.206;2022-12-18T00:23:29;8.07;;;6.20;;
7969;SDS011;4030;52.362;9.206;2022-12-18T00:25:59;6.67;;;5.70;;
7969;SDS011;4030;52.362;9.206;2022-12-18T00:28:26;9.23;;;6.27;;
7969;SDS011;4030;52.362;9.206;2022-12-18T00:31:26;8.63;;;6.40;;
7969;SDS011;4030;52.362;9.206;2022-12-18T00:33:47;8.83;;;6.17;;
7969;SDS011;4030;52.362;9.206;2022-12-18T00:36:15;9.53;;;6.73;;
7969;SDS011;4030;52.362;9.206;2022-12-18T00:38:46;8.40;;;6.70;;
7969;SDS011;4030;52.362;9.206;2022-12-18T00:41:13;7.40;;;6.03;;
7969;SDS011;4030;52.362;9.206;2022-12-18T00:44:04;8.43;;;6.23;;
7969;SDS011;4030;52.362;9.206;2022-12-18T00:46:31;7.27;;;6.03;;
7969;SDS011;4030;52.362;9.206;2022-12-18T00:48:57;8.67;;;6.33;;
7969;SDS011;4030;52.362;9.206;2022-12-18T00:51:23;9.03;;;6.40;;
7969;SDS011;4030;52.362;9.206;2022-12-18T00:53:49;7.80;;;6.20;;
7969;SDS011;4030;52.362;9.206;2022-12-18T00:56:16;8.57;;;6.30;;
7969;SDS011;4030;52.362;9.206;2022-12-18T00:58:42;8.30;;;6.33;;
7969;SDS011;4030;52.362;9.206;2022-12-18T01:01:08;9.50;;;6.77;;
7969;SDS011;4030;52.362;9.206;2022-12-18T01:03:33;9.37;;;6.47;;
7969;SDS011;4030;52.362;9.206;2022-12-18T01:06:04;7.93;;;6.10;;
7969;SDS011;4030;52.362;9.206;2022-12-18T01:08:37;7.97;;;6.10;;
7969;SDS011;4030;52.362;9.206;2022-12-18T01:11:07;9.37;;;6.23;;
7969;SDS011;4030;52.362;9.206;2022-12-18T01:13:42;8.70;;;6.10;;
7969;SDS011;4030;52.362;9.206;2022-12-18T01:16:08;7.80;;;6.20;;
7969;SDS011;4030;52.362;9.206;2022-12-18T01:18:36;9.20;;;6.43;;
7969;SDS011;4030;52.362;9.206;2022-12-18T01:21:06;8.47;;;6.20;;
7969;SDS011;4030;52.362;9.206;2022-12-18T01:23:33;7.63;;;5.97;;
7969;SDS011;4030;52.362;9.206;2022-12-18T01:26:06;8.03;;;6.13;;
7969;SDS011;4030;52.362;9.206;2022-12-18T01:28:35;8.17;;;6.10;;
7969;SDS011;4030;52.362;9.206;2022-12-18T01:31:16;7.73;;;6.40;;
7969;SDS011;4030;52.362;9.206;2022-12-18T01:33:46;7.67;;;5.50;;
7969;SDS011;4030;52.362;9.206;2022-12-18T01:36:16;7.50;;;5.90;;
7969;SDS011;4030;52.362;9.206;2022-12-18T01:38:45;9.10;;;5.90;;
7969;SDS011;4030;52.362;9.206;2022-12-18T01:41:12;8.37;;;5.93;;
7969;SDS011;4030;52.362;9.206;2022-12-18T01:43:41;8.97;;;6.37;;
7969;SDS011;4030;52.362;9.206;2022-12-18T01:46:17;8.93;;;6.43;;
7969;SDS011;4030;52.362;9.206;2022-12-18T01:48:46;7.03;;;5.63;;
7969;SDS011;4030;52.362;9.206;2022-12-18T01:51:15;8.60;;;6.20;;
7969;SDS011;4030;52.362;9.206;2022-12-18T01:53:41;7.27;;;6.00;;
7969;SDS011;4030;52.362;9.206;2022-12-18T01:56:11;6.77;;;5.53;;
7969;SDS011;4030;52.362;9.206;2022-12-18T02:01:28;7.17;;;5.47;;
7969;SDS011;4030;52.362;9.206;2022-12-18T02:03:55;8.30;;;5.67;;
7969;SDS011;4030;52.362;9.206;2022-12-18T02:06:33;7.57;;;5.73;;
7969;SDS011;4030;52.362;9.206;2022-12-18T02:09:12;8.00;;;5.70;;
7969;SDS011;4030;52.362;9.206;2022-12-18T02:12:05;7.30;;;5.67;;
7969;SDS011;4030;52.362;9.206;2022-12-18T02:15:06;7.63;;;5.17;;
7969;SDS011;4030;52.362;9.206;2022-12-18T02:17:43;7.47;;;5.10;;
7969;SDS011;4030;52.362;9.206;2022-12-18T02:20:31;7.33;;;5.13;;
7969;SDS011;4030;52.362;9.206;2022-12-18T02:23:11;7.17;;;5.43;;
7969;SDS011;4030;52.362;9.206;2022-12-18T02:28:53;8.37;;;5.50;;
7969;SDS011;4030;52.362;9.206;2022-12-18T02:31:24;7.23;;;5.17;;
7969;SDS011;4030;52.362;9.206;2022-12-18T02:33:54;7.57;;;5.37;;
7969;SDS011;4030;52.362;9.206;2022-12-18T02:36:24;7.30;;;5.33;;
7969;SDS011;4030;52.362;9.206;2022-12-18T02:38:53;7.20;;;5.20;;
7969;SDS011;4030;52.362;9.206;2022-12-18T02:41:24;7.03;;;5.10;;
7969;SDS011;4030;52.362;9.206;2022-12-18T02:43:56;6.30;;;4.70;;
7969;SDS011;4030;52.362;9.206;2022-12-18T02:46:45;7.20;;;4.80;;
7969;SDS011;4030;52.362;9.206;2022-12-18T02:52:18;6.80;;;5.00;;
7969;SDS011;4030;52.362;9.206;2022-12-18T02:58:04;6.50;;;4.77;;
7969;SDS011;4030;52.362;9.206;2022-12-18T03:06:04;6.57;;;4.93;;
7969;SDS011;4030;52.362;9.206;2022-12-18T03:08:37;5.83;;;4.43;;
7969;SDS011;4030;52.362;9.206;2022-12-18T03:11:11;6.27;;;4.90;;
7969;SDS011;4030;52.362;9.206;2022-12-18T03:13:51;7.07;;;4.63;;
7969;SDS011;4030;52.362;9.206;2022-12-18T03:16:25;5.97;;;4.10;;
7969;SDS011;4030;52.362;9.206;2022-12-18T03:18:55;7.67;;;4.53;;
7969;SDS011;4030;52.362;9.206;2022-12-18T03:21:26;5.97;;;4.87;;
7969;SDS011;4030;52.362;9.206;2022-12-18T03:24:08;6.67;;;4.80;;
7969;SDS011;4030;52.362;9.206;2022-12-18T03:26:36;6.97;;;4.77;;
7969;SDS011;4030;52.362;9.206;2022-12-18T03:29:17;6.70;;;5.10;;
7969;SDS011;4030;52.362;9.206;2022-12-18T03:31:51;6.70;;;5.10;;
7969;SDS011;4030;52.362;9.206;2022-12-18T03:34:29;5.30;;;4.47;;
7969;SDS011;4030;52.362;9.206;2022-12-18T03:36:58;6.67;;;4.63;;
7969;SDS011;4030;52.362;9.206;2022-12-18T03:39:27;6.70;;;4.77;;
7969;SDS011;4030;52.362;9.206;2022-12-18T03:45:14;6.73;;;4.83;;
7969;SDS011;4030;52.362;9.206;2022-12-18T03:47:58;6.67;;;4.77;;
7969;SDS011;4030;52.362;9.206;2022-12-18T03:53:36;5.73;;;4.30;;
7969;SDS011;4030;52.362;9.206;2022-12-18T03:56:06;5.73;;;4.20;;
7969;SDS011;4030;52.362;9.206;2022-12-18T03:58:34;5.80;;;4.67;;
7969;SDS011;4030;52.362;9.206;2022-12-18T04:01:03;6.33;;;4.70;;
7969;SDS011;4030;52.362;9.206;2022-12-18T04:03:32;6.33;;;4.50;;
7969;SDS011;4030;52.362;9.206;2022-12-18T04:05:59;6.07;;;4.47;;
7969;SDS011;4030;52.362;9.206;2022-12-18T04:08:25;5.87;;;4.60;;
7969;SDS011;4030;52.362;9.206;2022-12-18T04:10:52;5.93;;;4.50;;
7969;SDS011;4030;52.362;9.206;2022-12-18T04:13:22;6.80;;;4.83;;
7969;SDS011;4030;52.362;9.206;2022-12-18T04:15:57;6.97;;;4.47;;
7969;SDS011;4030;52.362;9.206;2022-12-18T04:18:23;4.70;;;3.90;;
7969;SDS011;4030;52.362;9.206;2022-12-18T04:20:49;7.10;;;4.83;;
7969;SDS011;4030;52.362;9.206;2022-12-18T04:23:15;6.70;;;4.50;;
7969;SDS011;4030;52.362;9.206;2022-12-18T04:25:40;5.83;;;4.30;;
7969;SDS011;4030;52.362;9.206;2022-12-18T04:28:06;6.87;;;4.60;;
7969;SDS011;4030;52.362;9.206;2022-12-18T04:30:32;5.90;;;4.70;;
7969;SDS011;4030;52.362;9.206;2022-12-18T04:32:59;5.93;;;4.53;;
7969;SDS011;4030;52.362;9.206;2022-12-18T04:35:24;6.37;;;4.70;;
7969;SDS011;4030;52.362;9.206;2022-12-18T04:37:50;5.53;;;4.00;;
7969;SDS011;4030;52.362;9.206;2022-12-18T04:40:17;6.87;;;4.50;;
7969;SDS011;4030;52.362;9.206;2022-12-18T04:42:43;5.67;;;4.27;;
7969;SDS011;4030;52.362;9.206;2022-12-18T04:45:09;7.37;;;4.97;;
7969;SDS011;4030;52.362;9.206;2022-12-18T04:47:35;7.30;;;4.80;;
7969;SDS011;4030;52.362;9.206;2022-12-18T04:50:01;7.23;;;4.73;;
7969;SDS011;4030;52.362;9.206;2022-12-18T04:52:27;5.97;;;4.40;;
7969;SDS011;4030;52.362;9.206;2022-12-18T04:54:53;5.53;;;4.50;;
7969;SDS011;4030;52.362;9.206;2022-12-18T04:57:19;6.17;;;4.67;;
7969;SDS011;4030;52.362;9.206;2022-12-18T04:59:45;7.33;;;4.93;;
7969;SDS011;4030;52.362;9.206;2022-12-18T05:02:11;7.53;;;5.03;;
7969;SDS011;4030;52.362;9.206;2022-12-18T05:04:37;5.73;;;4.50;;
7969;SDS011;4030;52.362;9.206;2022-12-18T05:07:03;5.77;;;4.53;;
7969;SDS011;4030;52.362;9.206;2022-12-18T05:09:29;6.33;;;4.90;;
7969;SDS011;4030;52.362;9.206;2022-12-18T05:11:55;5.57;;;4.30;;
7969;SDS011;4030;52.362;9.206;2022-12-18T05:14:21;5.30;;;4.20;;
7969;SDS011;4030;52.362;9.206;2022-12-18T05:16:48;5.70;;;4.67;;
7969;SDS011;4030;52.362;9.206;2022-12-18T05:19:13;5.30;;;4.27;;
7969;SDS011;4030;52.362;9.206;2022-12-18T05:21:40;5.77;;;4.70;;
7969;SDS011;4030;52.362;9.206;2022-12-18T05:24:06;5.80;;;4.40;;
7969;SDS011;4030;52.362;9.206;2022-12-18T05:26:32;6.57;;;4.33;;
7969;SDS011;4030;52.362;9.206;2022-12-18T05:28:58;6.70;;;4.60;;
7969;SDS011;4030;52.362;9.206;2022-12-18T05:31:24;6.27;;;4.50;;
7969;SDS011;4030;52.362;9.206;2022-12-18T05:33:50;5.90;;;4.40;;
7969;SDS011;4030;52.362;9.206;2022-12-18T05:36:16;7.57;;;4.90;;
7969;SDS011;4030;52.362;9.206;2022-12-18T05:38:42;5.53;;;4.30;;
7969;SDS011;4030;52.362;9.206;2022-12-18T05:41:08;7.60;;;4.97;;
7969;SDS011;4030;52.362;9.206;2022-12-18T05:43:35;5.77;;;4.60;;
7969;SDS011;4030;52.362;9.206;2022-12-18T05:46:06;6.53;;;4.77;;
7969;SDS011;4030;52.362;9.206;2022-12-18T05:48:37;7.37;;;5.20;;
7969;SDS011;4030;52.362;9.206;2022-12-18T05:51:04;6.63;;;4.80;;
7969;SDS011;4030;52.362;9.206;2022-12-18T05:53:33;6.93;;;4.57;;
7969;SDS011;4030;52.362;9.206;2022-12-18T05:56:00;7.43;;;4.87;;
7969;SDS011;4030;52.362;9.206;2022-12-18T05:58:29;6.47;;;4.33;;
7969;SDS011;4030;52.362;9.206;2022-12-18T06:00:55;6.40;;;4.77;;
7969;SDS011;4030;52.362;9.206;2022-12-18T06:03:21;6.00;;;4.57;;
7969;SDS011;4030;52.362;9.206;2022-12-18T06:05:47;7.00;;;4.43;;
7969;SDS011;4030;52.362;9.206;2022-12-18T06:08:13;6.33;;;4.57;;
7969;SDS011;4030;52.362;9.206;2022-12-18T06:10:39;6.30;;;4.80;;
7969;SDS011;4030;52.362;9.206;2022-12-18T06:13:06;6.57;;;4.43;;
7969;SDS011;4030;52.362;9.206;2022-12-18T06:15:32;6.27;;;4.77;;
7969;SDS011;4030;52.362;9.206;2022-12-18T06:18:01;6.93;;;4.90;;
7969;SDS011;4030;52.362;9.206;2022-12-18T06:20:27;6.50;;;4.43;;
7969;SDS011;4030;52.362;9.206;2022-12-18T06:22:53;5.67;;;4.23;;
7969;SDS011;4030;52.362;9.206;2022-12-18T06:25:19;5.77;;;4.57;;
7969;SDS011;4030;52.362;9.206;2022-12-18T06:27:46;7.03;;;4.87;;
7969;SDS011;4030;52.362;9.206;2022-12-18T06:30:13;6.87;;;4.57;;
7969;SDS011;4030;52.362;9.206;2022-12-18T06:32:39;7.27;;;4.57;;
7969;SDS011;4030;52.362;9.206;2022-12-18T06:35:05;7.37;;;4.67;;
7969;SDS011;4030;52.362;9.206;2022-12-18T06:37:32;6.43;;;4.60;;
7969;SDS011;4030;52.362;9.206;2022-12-18T06:39:58;6.87;;;4.60;;
7969;SDS011;4030;52.362;9.206;2022-12-18T06:42:25;6.80;;;5.00;;
7969;SDS011;4030;52.362;9.206;2022-12-18T06:44:51;6.60;;;4.83;;
7969;SDS011;4030;52.362;9.206;2022-12-18T06:47:17;7.00;;;5.00;;
7969;SDS011;4030;52.362;9.206;2022-12-18T06:49:43;8.07;;;4.97;;
7969;SDS011;4030;52.362;9.206;2022-12-18T06:52:09;6.13;;;4.80;;
7969;SDS011;4030;52.362;9.206;2022-12-18T06:54:35;7.67;;;4.90;;
7969;SDS011;4030;52.362;9.206;2022-12-18T06:57:01;7.83;;;5.70;;
7969;SDS011;4030;52.362;9.206;2022-12-18T06:59:26;6.10;;;5.10;;
7969;SDS011;4030;52.362;9.206;2022-12-18T07:01:52;6.07;;;4.87;;
7969;SDS011;4030;52.362;9.206;2022-12-18T07:04:18;7.53;;;5.20;;
7969;SDS011;4030;52.362;9.206;2022-12-18T07:06:44;6.77;;;4.93;;
7969;SDS011;4030;52.362;9.206;2022-12-18T07:09:11;7.00;;;4.97;;
7969;SDS011;4030;52.362;9.206;2022-12-18T07:11:36;7.17;;;4.80;;
7969;SDS011;4030;52.362;9.206;2022-12-18T07:14:02;6.67;;;4.83;;
7969;SDS011;4030;52.362;9.206;2022-12-18T07:16:29;9.07;;;5.97;;
7969;SDS011;4030;52.362;9.206;2022-12-18T07:18:55;8.53;;;6.00;;
7969;SDS011;4030;52.362;9.206;2022-12-18T07:21:22;9.03;;;6.57;;
7969;SDS011;4030;52.362;9.206;2022-12-18T07:23:49;10.13;;;6.80;;
7969;SDS011;4030;52.362;9.206;2022-12-18T07:26:16;9.87;;;6.37;;
7969;SDS011;4030;52.362;9.206;2022-12-18T07:28:43;9.50;;;7.00;;
7969;SDS011;4030;52.362;9.206;2022-12-18T07:31:11;9.30;;;6.70;;
7969;SDS011;4030;52.362;9.206;2022-12-18T07:33:40;10.80;;;6.57;;
7969;SDS011;4030;52.362;9.206;2022-12-18T07:36:07;11.80;;;7.27;;
7969;SDS011;4030;52.362;9.206;2022-12-18T07:38:33;10.47;;;6.97;;
7969;SDS011;4030;52.362;9.206;2022-12-18T07:41:04;9.40;;;6.70;;
7969;SDS011;4030;52.362;9.206;2022-12-18T07:43:33;9.07;;;6.00;;
7969;SDS011;4030;52.362;9.206;2022-12-18T07:45:59;7.57;;;6.20;;
7969;SDS011;4030;52.362;9.206;2022-12-18T07:48:25;9.17;;;6.57;;
7969;SDS011;4030;52.362;9.206;2022-12-18T07:50:52;9.10;;;5.90;;
7969;SDS011;4030;52.362;9.206;2022-12-18T07:53:18;8.80;;;6.60;;
7969;SDS011;4030;52.362;9.206;2022-12-18T07:55:44;8.37;;;6.20;;
7969;SDS011;4030;52.362;9.206;2022-12-18T07:58:10;8.93;;;6.67;;
7969;SDS011;4030;52.362;9.206;2022-12-18T08:00:36;10.03;;;6.83;;
7969;SDS011;4030;52.362;9.206;2022-12-18T08:03:02;10.60;;;7.23;;
7969;SDS011;4030;52.362;9.206;2022-12-18T08:05:28;11.90;;;7.77;;
7969;SDS011;4030;52.362;9.206;2022-12-18T08:07:54;9.23;;;7.57;;
7969;SDS011;4030;52.362;9.206;2022-12-18T08:10:21;12.50;;;8.30;;
7969;SDS011;4030;52.362;9.206;2022-12-18T08:12:50;11.63;;;8.37;;
7969;SDS011;4030;52.362;9.206;2022-12-18T08:15:16;12.87;;;8.33;;
7969;SDS011;4030;52.362;9.206;2022-12-18T08:17:42;13.33;;;8.73;;
7969;SDS011;4030;52.362;9.206;2022-12-18T08:20:08;11.53;;;7.90;;
7969;SDS011;4030;52.362;9.206;2022-12-18T08:22:35;12.70;;;8.37;;
7969;SDS011;4030;52.362;9.206;2022-12-18T08:25:04;11.83;;;8.93;;
7969;SDS011;4030;52.362;9.206;2022-12-18T08:27:31;12.90;;;9.23;;
7969;SDS011;4030;52.362;9.206;2022-12-18T08:29:57;12.37;;;9.23;;
7969;SDS011;4030;52.362;9.206;2022-12-18T08:32:23;12.10;;;9.43;;
7969;SDS011;4030;52.362;9.206;2022-12-18T08:34:50;13.03;;;9.37;;
7969;SDS011;4030;52.362;9.206;2022-12-18T08:37:16;13.53;;;9.93;;
7969;SDS011;4030;52.362;9.206;2022-12-18T08:39:43;13.03;;;9.73;;
7969;SDS011;4030;52.362;9.206;2022-12-18T08:42:09;11.83;;;9.50;;
7969;SDS011;4030;52.362;9.206;2022-12-18T08:44:54;12.53;;;8.50;;
7969;SDS011;4030;52.362;9.206;2022-12-18T08:47:20;11.43;;;8.80;;
7969;SDS011;4030;52.362;9.206;2022-12-18T08:49:45;12.03;;;9.10;;
7969;SDS011;4030;52.362;9.206;2022-12-18T08:52:14;11.13;;;8.37;;
7969;SDS011;4030;52.362;9.206;2022-12-18T08:54:40;10.20;;;7.67;;
7969;SDS011;4030;52.362;9.206;2022-12-18T08:57:05;11.30;;;7.90;;
7969;SDS011;4030;52.362;9.206;2022-12-18T08:59:31;11.00;;;7.67;;
7969;SDS011;4030;52.362;9.206;2022-12-18T09:01:57;11.63;;;8.07;;
7969;SDS011;4030;52.362;9.206;2022-12-18T09:04:23;10.07;;;7.43;;
7969;SDS011;4030;52.362;9.206;2022-12-18T09:06:50;10.37;;;7.10;;
7969;SDS011;4030;52.362;9.206;2022-12-18T09:09:16;8.03;;;6.40;;
7969;SDS011;4030;52.362;9.206;2022-12-18T09:11:42;7.67;;;5.93;;
7969;SDS011;4030;52.362;9.206;2022-12-18T09:14:08;7.50;;;5.60;;
7969;SDS011;4030;52.362;9.206;2022-12-18T09:16:34;7.10;;;5.60;;
7969;SDS011;4030;52.362;9.206;2022-12-18T09:19:01;6.77;;;5.30;;
7969;SDS011;4030;52.362;9.206;2022-12-18T09:21:29;6.57;;;5.00;;
7969;SDS011;4030;52.362;9.206;2022-12-18T09:23:57;7.17;;;5.57;;
7969;SDS011;4030;52.362;9.206;2022-12-18T09:26:24;7.40;;;5.43;;
7969;SDS011;4030;52.362;9.206;2022-12-18T09:28:51;6.13;;;4.77;;
7969;SDS011;4030;52.362;9.206;2022-12-18T09:31:18;5.90;;;4.83;;
7969;SDS011;4030;52.362;9.206;2022-12-18T09:33:46;6.63;;;5.17;;
7969;SDS011;4030;52.362;9.206;2022-12-18T09:36:13;5.43;;;4.53;;
7969;SDS011;4030;52.362;9.206;2022-12-18T09:38:41;5.97;;;4.83;;
7969;SDS011;4030;52.362;9.206;2022-12-18T09:44:36;4.90;;;4.10;;
7969;SDS011;4030;52.362;9.206;2022-12-18T09:47:11;5.67;;;4.30;;
7969;SDS011;4030;52.362;9.206;2022-12-18T09:49:44;5.73;;;4.73;;
7969;SDS011;4030;52.362;9.206;2022-12-18T09:52:23;6.93;;;4.53;;
7969;SDS011;4030;52.362;9.206;2022-12-18T09:55:00;7.27;;;4.50;;
7969;SDS011;4030;52.362;9.206;2022-12-18T09:57:35;5.23;;;4.20;;
7969;SDS011;4030;52.362;9.206;2022-12-18T10:00:15;5.97;;;4.50;;
7969;SDS011;4030;52.362;9.206;2022-12-18T10:02:46;4.43;;;3.90;;
7969;SDS011;4030;52.362;9.206;2022-12-18T10:10:53;5.23;;;3.97;;
7969;SDS011;4030;52.362;9.206;2022-12-18T10:22:19;4.17;;;3.73;;
7969;SDS011;4030;52.362;9.206;2022-12-18T10:28:14;5.47;;;3.80;;
7969;SDS011;4030;52.362;9.206;2022-12-18T10:30:41;4.77;;;3.60;;
7969;SDS011;4030;52.362;9.206;2022-12-18T10:33:16;5.23;;;3.80;;
7969;SDS011;4030;52.362;9.206;2022-12-18T10:35:44;4.47;;;3.50;;
7969;SDS011;4030;52.362;9.206;2022-12-18T10:48:36;4.77;;;3.73;;
7969;SDS011;4030;52.362;9.206;2022-12-18T10:51:21;5.10;;;3.50;;
7969;SDS011;4030;52.362;9.206;2022-12-18T10:54:02;4.93;;;3.73;;
7969;SDS011;4030;52.362;9.206;2022-12-18T10:56:39;5.33;;;4.23;;
7969;SDS011;4030;52.362;9.206;2022-12-18T10:59:09;5.07;;;4.10;;
7969;SDS011;4030;52.362;9.206;2022-12-18T11:04:22;4.27;;;3.77;;
7969;SDS011;4030;52.362;9.206;2022-12-18T11:09:27;5.27;;;4.37;;
7969;SDS011;4030;52.362;9.206;2022-12-18T11:12:01;5.37;;;3.80;;
7969;SDS011;4030;52.362;9.206;2022-12-18T11:14:42;5.73;;;3.70;;
7969;SDS011;4030;52.362;9.206;2022-12-18T11:17:20;4.60;;;3.87;;
7969;SDS011;4030;52.362;9.206;2022-12-18T11:20:01;5.23;;;4.23;;
7969;SDS011;4030;52.362;9.206;2022-12-18T11:22:32;4.70;;;3.93;;
7969;SDS011;4030;52.362;9.206;2022-12-18T11:27:28;5.67;;;4.30;;
7969;SDS011;4030;52.362;9.206;2022-12-18T11:30:07;5.50;;;4.83;;
7969;SDS011;4030;52.362;9.206;2022-12-18T11:32:49;6.10;;;3.90;;
7969;SDS011;4030;52.362;9.206;2022-12-18T11:35:32;4.73;;;4.23;;
7969;SDS011;4030;52.362;9.206;2022-12-18T11:38:24;4.83;;;4.10;;
7969;SDS011;4030;52.362;9.206;2022-12-18T11:43:43;4.60;;;3.90;;
7969;SDS011;4030;52.362;9.206;2022-12-18T11:46:21;4.73;;;4.00;;
7969;SDS011;4030;52.362;9.206;2022-12-18T11:49:06;5.17;;;4.00;;
7969;SDS011;4030;52.362;9.206;2022-12-18T11:54:41;6.10;;;4.27;;
7969;SDS011;4030;52.362;9.206;2022-12-18T12:02:40;5.37;;;3.80;;
7969;SDS011;4030;52.362;9.206;2022-12-18T12:11:23;5.80;;;3.93;;
7969;SDS011;4030;52.362;9.206;2022-12-18T12:31:23;4.47;;;3.50;;
7969;SDS011;4030;52.362;9.206;2022-12-18T12:37:38;4.57;;;3.87;;
7969;SDS011;4030;52.362;9.206;2022-12-18T12:40:31;6.83;;;5.30;;
7969;SDS011;4030;52.362;9.206;2022-12-18T12:43:37;8.23;;;6.13;;
7969;SDS011;4030;52.362;9.206;2022-12-18T12:46:09;7.27;;;5.80;;
7969;SDS011;4030;52.362;9.206;2022-12-18T12:51:30;8.13;;;6.20;;
7969;SDS011;4030;52.362;9.206;2022-12-18T12:54:01;8.80;;;6.77;;
7969;SDS011;4030;52.362;9.206;2022-12-18T12:56:41;9.43;;;6.63;;
7969;SDS011;4030;52.362;9.206;2022-12-18T13:02:39;7.07;;;6.03;;
7969;SDS011;4030;52.362;9.206;2022-12-18T13:08:24;5.87;;;5.07;;
7969;SDS011;4030;52.362;9.206;2022-12-18T13:10:57;6.10;;;5.27;;
7969;SDS011;4030;52.362;9.206;2022-12-18T13:13:55;7.73;;;5.03;;
7969;SDS011;4030;52.362;9.206;2022-12-18T13:16:23;6.03;;;5.00;;
7969;SDS011;4030;52.362;9.206;2022-12-18T13:21:20;7.50;;;5.23;;
7969;SDS011;4030;52.362;9.206;2022-12-18T13:23:52;5.83;;;4.77;;
7969;SDS011;4030;52.362;9.206;2022-12-18T13:31:11;5.70;;;4.80;;
7969;SDS011;4030;52.362;9.206;2022-12-18T13:34:26;5.80;;;4.57;;
7969;SDS011;4030;52.362;9.206;2022-12-18T13:37:36;5.07;;;3.93;;
7969;SDS011;4030;52.362;9.206;2022-12-18T13:40:01;5.70;;;4.20;;
7969;SDS011;4030;52.362;9.206;2022-12-18T13:45:42;3.93;;;3.40;;
7969;SDS011;4030;52.362;9.206;2022-12-18T13:48:28;5.20;;;3.90;;
7969;SDS011;4030;52.362;9.206;2022-12-18T13:50:59;4.90;;;4.00;;
7969;SDS011;4030;52.362;9.206;2022-12-18T13:53:30;4.70;;;4.00;;
7969;SDS011;4030;52.362;9.206;2022-12-18T13:56:26;5.07;;;3.53;;
7969;SDS011;4030;52.362;9.206;2022-12-18T13:59:15;5.33;;;3.93;;
7969;SDS011;4030;52.362;9.206;2022-12-18T14:01:47;5.73;;;4.00;;
7969;SDS011;4030;52.362;9.206;2022-12-18T14:04:19;5.53;;;3.80;;
7969;SDS011;4030;52.362;9.206;2022-12-18T14:07:16;5.00;;;3.77;;
7969;SDS011;4030;52.362;9.206;2022-12-18T14:09:58;5.33;;;3.67;;
7969;SDS011;4030;52.362;9.206;2022-12-18T14:18:01;4.63;;;3.40;;
7969;SDS011;4030;52.362;9.206;2022-12-18T14:21:03;4.00;;;3.23;;
7969;SDS011;4030;52.362;9.206;2022-12-18T14:26:25;5.03;;;3.60;;
7969;SDS011;4030;52.362;9.206;2022-12-18T14:28:58;4.23;;;3.50;;
7969;SDS011;4030;52.362;9.206;2022-12-18T14:31:44;4.83;;;3.60;;
7969;SDS011;4030;52.362;9.206;2022-12-18T14:34:15;5.37;;;3.40;;
7969;SDS011;4030;52.362;9.206;2022-12-18T14:36:44;4.03;;;3.30;;
7969;SDS011;4030;52.362;9.206;2022-12-18T14:39:17;4.40;;;3.50;;
7969;SDS011;4030;52.362;9.206;2022-12-18T14:41:43;4.93;;;3.57;;
7969;SDS011;4030;52.362;9.206;2022-12-18T14:44:11;13.07;;;4.10;;
7969;SDS011;4030;52.362;9.206;2022-12-18T14:46:38;8.43;;;3.23;;
7969;SDS011;4030;52.362;9.206;2022-12-18T14:49:25;9.77;;;3.40;;
7969;SDS011;4030;52.362;9.206;2022-12-18T14:51:57;5.60;;;3.57;;
7969;SDS011;4030;52.362;9.206;2022-12-18T14:54:24;7.87;;;3.97;;
7969;SDS011;4030;52.362;9.206;2022-12-18T14:56:52;7.17;;;3.60;;
7969;SDS011;4030;52.362;9.206;2022-12-18T14:59:28;5.37;;;3.67;;
7969;SDS011;4030;52.362;9.206;2022-12-18T15:05:02;7.10;;;3.67;;
7969;SDS011;4030;52.362;9.206;2022-12-18T15:07:43;5.63;;;3.53;;
7969;SDS011;4030;52.362;9.206;2022-12-18T15:18:03;4.40;;;3.73;;
7969;SDS011;4030;52.362;9.206;2022-12-18T15:20:32;4.77;;;3.47;;
7969;SDS011;4030;52.362;9.206;2022-12-18T15:25:58;5.13;;;3.67;;
7969;SDS011;4030;52.362;9.206;2022-12-18T15:28:35;9.33;;;3.70;;
7969;SDS011;4030;52.362;9.206;2022-12-18T15:34:19;5.23;;;3.60;;
7969;SDS011;4030;52.362;9.206;2022-12-18T15:36:22;5.57;;;3.30;;
7969;SDS011;4030;52.362;9.206;2022-12-18T15:38:49;4.63;;;3.40;;
7969;SDS011;4030;52.362;9.206;2022-12-18T15:41:16;4.97;;;3.67;;
7969;SDS011;4030;52.362;9.206;2022-12-18T15:43:50;4.93;;;3.73;;
7969;SDS011;4030;52.362;9.206;2022-12-18T15:46:18;5.57;;;4.10;;
7969;SDS011;4030;52.362;9.206;2022-12-18T15:48:52;6.07;;;4.20;;
7969;SDS011;4030;52.362;9.206;2022-12-18T15:51:24;4.97;;;3.77;;
7969;SDS011;4030;52.362;9.206;2022-12-18T15:53:54;5.50;;;4.27;;
7969;SDS011;4030;52.362;9.206;2022-12-18T15:56:23;5.70;;;3.83;;
7969;SDS011;4030;52.362;9.206;2022-12-18T15:59:11;6.07;;;4.23;;
7969;SDS011;4030;52.362;9.206;2022-12-18T16:01:46;5.20;;;4.30;;
7969;SDS011;4030;52.362;9.206;2022-12-18T16:04:15;6.03;;;3.90;;
7969;SDS011;4030;52.362;9.206;2022-12-18T16:06:45;4.10;;;3.30;;
7969;SDS011;4030;52.362;9.206;2022-12-18T16:09:11;4.90;;;3.63;;
7969;SDS011;4030;52.362;9.206;2022-12-18T16:11:37;5.10;;;3.90;;
7969;SDS011;4030;52.362;9.206;2022-12-18T16:16:58;5.70;;;3.93;;
7969;SDS011;4030;52.362;9.206;2022-12-18T16:19:27;5.97;;;3.80;;
7969;SDS011;4030;52.362;9.206;2022-12-18T16:21:54;5.13;;;3.70;;
7969;SDS011;4030;52.362;9.206;2022-12-18T16:24:26;4.83;;;3.80;;
7969;SDS011;4030;52.362;9.206;2022-12-18T16:26:55;4.20;;;3.60;;
7969;SDS011;4030;52.362;9.206;2022-12-18T16:29:24;3.97;;;3.33;;
7969;SDS011;4030;52.362;9.206;2022-12-18T16:31:55;5.23;;;3.70;;
7969;SDS011;4030;52.362;9.206;2022-12-18T16:34:24;3.40;;;3.10;;
7969;SDS011;4030;52.362;9.206;2022-12-18T16:36:59;4.43;;;3.20;;
7969;SDS011;4030;52.362;9.206;2022-12-18T16:39:28;5.47;;;3.63;;
7969;SDS011;4030;52.362;9.206;2022-12-18T16:41:55;4.70;;;3.40;;
7969;SDS011;4030;52.362;9.206;2022-12-18T16:44:21;4.07;;;3.47;;
7969;SDS011;4030;52.362;9.206;2022-12-18T16:46:47;5.23;;;3.33;;
7969;SDS011;4030;52.362;9.206;2022-12-18T16:49:13;5.60;;;3.63;;
7969;SDS011;4030;52.362;9.206;2022-12-18T16:51:41;3.97;;;3.20;;
7969;SDS011;4030;52.362;9.206;2022-12-18T16:54:07;4.17;;;3.23;;
7969;SDS011;4030;52.362;9.206;2022-12-18T16:56:33;4.27;;;3.53;;
7969;SDS011;4030;52.362;9.206;2022-12-18T16:58:59;4.03;;;3.27;;
7969;SDS011;4030;52.362;9.206;2022-12-18T17:01:27;4.67;;;3.70;;
7969;SDS011;4030;52.362;9.206;2022-12-18T17:03:55;5.20;;;3.20;;
7969;SDS011;4030;52.362;9.206;2022-12-18T17:06:30;4.87;;;3.47;;
7969;SDS011;4030;52.362;9.206;2022-12-18T17:09:08;4.00;;;3.03;;
7969;SDS011;4030;52.362;9.206;2022-12-18T17:11:40;4.53;;;3.37;;
7969;SDS011;4030;52.362;9.206;2022-12-18T17:14:07;4.37;;;3.40;;
7969;SDS011;4030;52.362;9.206;2022-12-18T17:16:36;3.50;;;3.00;;
7969;SDS011;4030;52.362;9.206;2022-12-18T17:19:02;5.10;;;3.40;;
7969;SDS011;4030;52.362;9.206;2022-12-18T17:21:28;4.20;;;3.40;;
7969;SDS011;4030;52.362;9.206;2022-12-18T17:23:55;5.17;;;3.13;;
7969;SDS011;4030;52.362;9.206;2022-12-18T17:26:23;4.80;;;3.23;;
7969;SDS011;4030;52.362;9.206;2022-12-18T17:28:49;4.30;;;3.17;;
7969;SDS011;4030;52.362;9.206;2022-12-18T17:31:16;4.33;;;3.57;;
7969;SDS011;4030;52.362;9.206;2022-12-18T17:33:45;3.70;;;3.30;;
7969;SDS011;4030;52.362;9.206;2022-12-18T17:36:11;4.10;;;3.50;;
7969;SDS011;4030;52.362;9.206;2022-12-18T17:38:38;4.43;;;3.27;;
7969;SDS011;4030;52.362;9.206;2022-12-18T17:41:07;4.47;;;3.17;;
7969;SDS011;4030;52.362;9.206;2022-12-18T17:43:35;5.10;;;3.40;;
7969;SDS011;4030;52.362;9.206;2022-12-18T17:46:09;4.30;;;3.03;;
7969;SDS011;4030;52.362;9.206;2022-12-18T17:48:37;4.00;;;3.10;;
7969;SDS011;4030;52.362;9.206;2022-12-18T17:51:04;4.30;;;3.40;;
7969;SDS011;4030;52.362;9.206;2022-12-18T17:53:32;4.20;;;2.97;;
7969;SDS011;4030;52.362;9.206;2022-12-18T17:55:58;4.40;;;2.97;;
7969;SDS011;4030;52.362;9.206;2022-12-18T17:58:25;4.60;;;3.37;;
7969;SDS011;4030;52.362;9.206;2022-12-18T18:00:53;4.10;;;3.50;;
7969;SDS011;4030;52.362;9.206;2022-12-18T18:03:19;6.13;;;3.57;;
7969;SDS011;4030;52.362;9.206;2022-12-18T18:05:45;5.73;;;3.90;;